Time;durP1;ratioP1;P1;durP2;ratioP2;P2;SDS_P1;SDS_P2;PMS_P1;PMS_P2;Temp;Humidity;BMP_temperature;BMP_pressure;BME280_temperature;BME280_humidity;BME280_pressure;Samples;Min_cycle;Max_cycle;Signal;HPM_P1;HPM_P2
2022/05/09 00:01:49;;;;;;;9.30;3.13;;;7.50;99.90;;;;;;5116092;28;20043;-76
2022/05/09 00:04:15;;;;;;;11.55;3.50;;;7.50;99.90;;;;;;5115980;28;20118;-76
2022/05/09 00:06:40;;;;;;;14.98;3.47;;;7.50;99.90;;;;;;5115964;28;20156;-76
2022/05/09 00:09:06;;;;;;;18.55;4.00;;;7.50;99.90;;;;;;5116023;28;20039;-76
2022/05/09 00:11:32;;;;;;;14.02;3.10;;;7.40;99.90;;;;;;5115840;28;20465;-76
2022/05/09 00:13:59;;;;;;;13.13;3.40;;;7.50;99.90;;;;;;5115840;27;20486;-76
2022/05/09 00:16:25;;;;;;;13.95;3.30;;;7.40;99.90;;;;;;5115697;28;20104;-76
2022/05/09 00:18:50;;;;;;;9.00;3.22;;;7.30;99.90;;;;;;5115700;28;20397;-77
2022/05/09 00:21:16;;;;;;;12.85;3.60;;;7.30;99.90;;;;;;5115662;28;20082;-75
2022/05/09 00:23:42;;;;;;;11.68;3.65;;;7.30;99.90;;;;;;5115337;28;20050;-76
2022/05/09 00:26:07;;;;;;;14.68;3.75;;;7.30;99.90;;;;;;5115568;28;20055;-77
2022/05/09 00:28:34;;;;;;;11.70;3.65;;;7.30;99.90;;;;;;5115605;28;20035;-76
2022/05/09 00:30:59;;;;;;;14.13;3.77;;;7.30;99.90;;;;;;5115596;28;20089;-77
2022/05/09 00:33:25;;;;;;;16.45;4.05;;;7.30;99.90;;;;;;5115467;28;20446;-76
2022/05/09 00:35:52;;;;;;;8.73;3.75;;;7.20;99.90;;;;;;5115413;28;20039;-76
2022/05/09 00:38:18;;;;;;;17.08;4.20;;;7.20;99.90;;;;;;5115295;28;20051;-76
2022/05/09 00:41:28;;;;;;;24.30;4.78;;;7.20;99.90;;;;;;5115063;28;20035;-76
2022/05/09 00:43:32;;;;;;;12.55;3.47;;;7.10;99.90;;;;;;5114748;28;20160;-76
2022/05/09 00:45:58;;;;;;;13.20;4.10;;;7.20;99.90;;;;;;5114924;27;20491;-76
2022/05/09 00:48:23;;;;;;;14.23;3.88;;;7.20;99.90;;;;;;5115176;28;20035;-76
2022/05/09 00:50:49;;;;;;;13.48;3.80;;;7.20;99.90;;;;;;5115264;28;20475;-75
2022/05/09 00:53:15;;;;;;;11.60;4.00;;;7.20;99.90;;;;;;5115121;28;20039;-77
2022/05/09 00:55:45;;;;;;;12.85;4.07;;;7.20;99.90;;;;;;5115004;28;20043;-76
2022/05/09 00:58:18;;;;;;;13.30;4.72;;;7.20;99.90;;;;;;5115009;28;20052;-76
2022/05/09 01:00:45;;;;;;;12.10;4.18;;;7.20;99.90;;;;;;5114835;28;20497;-75
2022/05/09 01:03:18;;;;;;;15.20;4.63;;;7.20;99.90;;;;;;5114989;28;20044;-76
2022/05/09 01:05:50;;;;;;;12.25;4.35;;;7.10;99.90;;;;;;5114894;28;20046;-76
2022/05/09 01:08:18;;;;;;;9.43;4.63;;;7.10;99.90;;;;;;5115539;28;20403;-76
2022/05/09 01:10:43;;;;;;;15.63;4.65;;;7.10;99.90;;;;;;5115095;28;20079;-76
2022/05/09 01:13:12;;;;;;;12.77;4.38;;;7.10;99.90;;;;;;5114717;28;20047;-76
2022/05/09 01:15:40;;;;;;;10.32;4.32;;;7.00;99.90;;;;;;5114613;28;20059;-77
2022/05/09 01:18:09;;;;;;;14.95;4.45;;;7.00;99.90;;;;;;5114418;28;20183;-76
2022/05/09 01:20:34;;;;;;;13.63;4.40;;;7.00;99.90;;;;;;5114606;28;20443;-76
2022/05/09 01:23:00;;;;;;;11.77;4.30;;;7.00;99.90;;;;;;5114593;28;20165;-77
2022/05/09 01:25:29;;;;;;;16.17;5.03;;;7.00;99.90;;;;;;5114106;28;20043;-77
2022/05/09 01:27:55;;;;;;;14.80;4.10;;;7.00;99.90;;;;;;5114468;28;20099;-77
2022/05/09 01:30:52;;;;;;;12.45;3.75;;;6.90;99.90;;;;;;5114506;28;20040;-75
2022/05/09 01:33:22;;;;;;;11.88;3.97;;;6.90;99.90;;;;;;5109723;28;20062;-75
2022/05/09 01:36:00;;;;;;;13.48;3.97;;;6.90;99.90;;;;;;5114281;28;20105;-75
2022/05/09 01:38:44;;;;;;;10.07;3.65;;;6.90;99.90;;;;;;5114412;28;20079;-75
2022/05/09 01:41:09;;;;;;;14.05;3.47;;;6.90;99.90;;;;;;5114234;28;20126;-75
2022/05/09 01:43:38;;;;;;;13.63;4.32;;;6.80;99.90;;;;;;5114298;28;20123;-76
2022/05/09 01:46:07;;;;;;;12.85;4.20;;;6.80;99.90;;;;;;5114294;28;20126;-76
2022/05/09 01:51:17;;;;;;;10.35;4.30;;;6.70;99.90;;;;;;5114238;28;20051;-76
2022/05/09 01:53:51;;;;;;;15.50;4.50;;;6.70;99.90;;;;;;5113408;28;20035;-75
2022/05/09 01:56:23;;;;;;;15.00;4.57;;;6.70;99.90;;;;;;5114140;28;20047;-76
2022/05/09 01:58:49;;;;;;;12.20;4.70;;;6.60;99.90;;;;;;5113967;28;20043;-76
2022/05/09 02:01:18;;;;;;;14.48;4.47;;;6.60;99.90;;;;;;5114177;28;20047;-76
2022/05/09 02:03:47;;;;;;;15.93;5.30;;;6.50;99.90;;;;;;5114058;28;20047;-76
2022/05/09 02:06:14;;;;;;;15.95;5.15;;;6.50;99.90;;;;;;5114048;28;20086;-76
2022/05/09 02:08:40;;;;;;;;;;;6.50;99.90;;;;;;5114507;28;20069;-76
2022/05/09 02:11:05;;;;;;;14.38;4.50;;;6.50;99.90;;;;;;5114050;28;19919;-76
2022/05/09 02:13:31;;;;;;;18.08;5.35;;;6.50;99.90;;;;;;5114296;28;20044;-76
2022/05/09 02:15:58;;;;;;;19.70;4.63;;;6.50;99.90;;;;;;5113735;28;20120;-76
2022/05/09 02:18:23;;;;;;;17.40;5.20;;;6.50;99.90;;;;;;5113902;28;20442;-76
2022/05/09 02:20:49;;;;;;;16.00;5.47;;;6.50;99.90;;;;;;5112697;28;20055;-76
2022/05/09 02:23:17;;;;;;;15.35;5.05;;;6.50;99.90;;;;;;5113867;28;20051;-76
2022/05/09 02:25:43;;;;;;;16.17;5.20;;;6.40;99.90;;;;;;5113854;28;20417;-76
2022/05/09 02:28:09;;;;;;;17.60;4.88;;;6.40;99.90;;;;;;5113832;28;20069;-77
2022/05/09 02:30:36;;;;;;;12.85;4.75;;;6.40;99.90;;;;;;5113871;28;20118;-75
2022/05/09 02:33:02;;;;;;;14.02;5.20;;;6.40;99.90;;;;;;5113969;28;20048;-75
2022/05/09 02:35:28;;;;;;;18.13;5.25;;;6.30;99.90;;;;;;5113627;28;20039;-76
2022/05/09 02:37:54;;;;;;;11.40;4.65;;;6.30;99.90;;;;;;5114280;28;20048;-75
2022/05/09 02:40:20;;;;;;;11.20;4.65;;;6.20;99.90;;;;;;5113705;28;20040;-76
2022/05/09 02:42:45;;;;;;;17.17;4.78;;;6.20;99.90;;;;;;5113753;28;20054;-76
2022/05/09 02:45:12;;;;;;;13.85;4.28;;;6.20;99.90;;;;;;5113697;28;20044;-76
2022/05/09 02:47:40;;;;;;;12.23;4.18;;;6.10;99.90;;;;;;5113661;28;20052;-76
2022/05/09 02:50:07;;;;;;;11.90;5.07;;;6.10;99.90;;;;;;5113708;28;20079;-76
2022/05/09 02:52:33;;;;;;;9.65;4.18;;;6.10;99.90;;;;;;5113349;28;20511;-76
2022/05/09 02:54:58;;;;;;;9.25;4.13;;;6.00;99.90;;;;;;5113491;28;20051;-76
2022/05/09 02:57:24;;;;;;;11.30;4.53;;;6.00;99.90;;;;;;5113890;28;20180;-76
2022/05/09 02:59:50;;;;;;;11.70;4.22;;;6.00;99.90;;;;;;5113613;28;20059;-76
2022/05/09 03:02:15;;;;;;;12.63;3.92;;;6.00;99.90;;;;;;5113578;28;20505;-76
2022/05/09 03:04:41;;;;;;;12.52;4.18;;;5.90;99.90;;;;;;5113458;28;20499;-76
2022/05/09 03:07:13;;;;;;;11.23;4.53;;;5.90;99.90;;;;;;5116537;28;20039;-76
2022/05/09 03:09:41;;;;;;;16.48;4.30;;;5.90;99.90;;;;;;5117090;27;20047;-76
2022/05/09 03:12:08;;;;;;;12.80;4.00;;;5.90;99.90;;;;;;5117139;28;20051;-76
2022/05/09 03:14:35;;;;;;;12.02;4.45;;;5.80;99.90;;;;;;5116831;28;20044;-75
2022/05/09 03:17:01;;;;;;;15.57;4.87;;;5.80;99.90;;;;;;5116609;28;20089;-76
2022/05/09 03:19:27;;;;;;;13.97;4.03;;;5.80;99.90;;;;;;5116671;28;20510;-76
2022/05/09 03:21:53;;;;;;;14.63;4.32;;;5.80;99.90;;;;;;5117409;28;20039;-76
2022/05/09 03:24:19;;;;;;;11.77;4.23;;;5.80;99.90;;;;;;5116834;28;20471;-75
2022/05/09 03:26:49;;;;;;;15.02;5.40;;;5.70;99.90;;;;;;5117040;28;20090;-75
2022/05/09 03:29:16;;;;;;;13.15;4.82;;;5.70;99.90;;;;;;5116547;28;20103;-75
2022/05/09 03:31:41;;;;;;;18.10;5.88;;;5.70;99.90;;;;;;5116926;28;20043;-76
2022/05/09 03:34:07;;;;;;;14.23;4.85;;;5.70;99.90;;;;;;5116545;28;20054;-75
2022/05/09 03:36:34;;;;;;;10.27;5.32;;;5.60;99.90;;;;;;5116683;28;20047;-75
2022/05/09 03:39:00;;;;;;;12.02;4.68;;;5.60;99.90;;;;;;5116609;28;20047;-76
2022/05/09 03:41:26;;;;;;;13.93;5.13;;;5.60;99.90;;;;;;5116558;28;20060;-76
2022/05/09 03:43:52;;;;;;;15.52;4.95;;;5.60;99.90;;;;;;5116522;28;20047;-76
2022/05/09 03:46:17;;;;;;;14.10;5.15;;;5.60;99.90;;;;;;5116594;28;20051;-76
2022/05/09 03:48:43;;;;;;;10.18;4.32;;;5.50;99.90;;;;;;5115117;28;20424;-76
2022/05/09 03:51:08;;;;;;;11.40;4.50;;;5.50;99.90;;;;;;5116217;28;20396;-75
2022/05/09 03:53:35;;;;;;;10.93;5.07;;;5.50;99.90;;;;;;5116221;28;20047;-75
2022/05/09 03:56:00;;;;;;;13.05;4.72;;;5.50;99.90;;;;;;5116406;27;20106;-76
2022/05/09 03:58:26;;;;;;;11.00;4.60;;;5.50;99.90;;;;;;5116340;28;20043;-76
2022/05/09 04:00:53;;;;;;;15.68;4.53;;;5.50;99.90;;;;;;5116184;27;20108;-76
2022/05/09 04:03:19;;;;;;;9.43;4.20;;;5.50;99.90;;;;;;5121957;28;20043;-76
2022/05/09 04:05:44;;;;;;;13.93;4.85;;;5.50;99.90;;;;;;5124028;28;20031;-76
2022/05/09 04:08:16;;;;;;;14.13;4.68;;;5.50;99.90;;;;;;5123237;28;20122;-76
2022/05/09 04:10:42;;;;;;;13.45;4.95;;;5.50;99.90;;;;;;5122688;28;20537;-74
2022/05/09 04:13:09;;;;;;;13.32;4.63;;;5.50;99.90;;;;;;5121874;28;20052;-77
2022/05/09 04:18:23;;;;;;;13.25;4.55;;;5.50;99.90;;;;;;5115266;28;20087;-76
2022/05/09 04:20:50;;;;;;;12.73;4.70;;;5.60;99.90;;;;;;5115883;28;20078;-76
2022/05/09 04:23:16;;;;;;;11.68;5.05;;;5.60;99.90;;;;;;5116020;28;20069;-75
2022/05/09 04:25:43;;;;;;;11.63;4.67;;;5.60;99.90;;;;;;5116195;28;20036;-76
2022/05/09 04:28:09;;;;;;;14.02;5.20;;;5.60;99.90;;;;;;5115915;28;20051;-76
2022/05/09 04:30:36;;;;;;;11.90;4.70;;;5.60;99.90;;;;;;5115733;28;20043;-74
2022/05/09 04:33:04;;;;;;;15.52;4.95;;;5.70;99.90;;;;;;5115694;28;20122;-76
2022/05/09 04:35:31;;;;;;;14.80;4.40;;;5.70;99.90;;;;;;5115756;28;20052;-76
2022/05/09 04:37:57;;;;;;;14.52;4.75;;;5.70;99.90;;;;;;5115483;28;20055;-76
2022/05/09 04:40:26;;;;;;;12.32;5.10;;;5.80;99.90;;;;;;5115382;28;20043;-74
2022/05/09 04:42:52;;;;;;;13.05;5.00;;;5.80;99.90;;;;;;5115526;28;20126;-76
2022/05/09 04:45:18;;;;;;;13.73;4.95;;;5.90;99.90;;;;;;5115415;27;20081;-75
2022/05/09 04:47:45;;;;;;;14.57;5.18;;;5.90;99.90;;;;;;5115498;28;20050;-75
2022/05/09 04:50:13;;;;;;;11.07;4.63;;;5.90;99.90;;;;;;5114115;28;20047;-75
2022/05/09 04:52:39;;;;;;;14.38;5.20;;;5.90;99.90;;;;;;5115207;28;20179;-76
2022/05/09 04:55:05;;;;;;;13.02;4.97;;;6.00;99.90;;;;;;5114951;28;20496;-75
2022/05/09 04:57:31;;;;;;;9.30;5.05;;;6.00;99.90;;;;;;5115133;28;20135;-76
2022/05/09 04:59:57;;;;;;;17.25;6.60;;;6.10;99.90;;;;;;5113715;28;20130;-75
2022/05/09 05:02:23;;;;;;;19.15;7.07;;;6.10;99.90;;;;;;5115193;28;20058;-75
2022/05/09 05:04:48;;;;;;;22.85;5.65;;;6.20;99.90;;;;;;5115085;28;20043;-75
2022/05/09 05:07:14;;;;;;;14.02;5.50;;;6.40;99.90;;;;;;5115083;28;20097;-75
2022/05/09 05:09:40;;;;;;;18.35;5.35;;;6.60;99.90;;;;;;5114992;28;20375;-76
2022/05/09 05:12:06;;;;;;;14.80;5.20;;;6.80;99.90;;;;;;5114709;28;20103;-75
2022/05/09 05:14:31;;;;;;;14.93;5.10;;;7.00;99.90;;;;;;5114467;28;20051;-75
2022/05/09 05:16:59;;;;;;;19.25;5.25;;;7.10;99.90;;;;;;5115195;28;20115;-75
2022/05/09 05:19:33;;;;;;;15.02;5.32;;;7.20;99.90;;;;;;5114717;28;20046;-76
2022/05/09 05:22:01;;;;;;;17.45;5.00;;;7.20;99.90;;;;;;5114683;28;20047;-76
2022/05/09 05:24:27;;;;;;;16.08;5.05;;;7.20;99.90;;;;;;5114532;28;20176;-75
2022/05/09 05:26:54;;;;;;;20.35;4.90;;;7.20;99.90;;;;;;5114700;28;20051;-75
2022/05/09 05:29:20;;;;;;;13.57;5.00;;;7.30;99.90;;;;;;5114326;28;20471;-76
2022/05/09 05:31:46;;;;;;;15.73;5.18;;;7.30;99.90;;;;;;5114457;28;20462;-76
2022/05/09 05:34:12;;;;;;;13.30;4.60;;;7.40;99.90;;;;;;5114567;28;20135;-76
2022/05/09 05:36:37;;;;;;;15.30;5.15;;;7.40;99.90;;;;;;5113748;28;20039;-75
2022/05/09 05:39:03;;;;;;;13.85;6.07;;;7.50;99.90;;;;;;5114502;28;20036;-75
2022/05/09 05:41:31;;;;;;;14.13;4.80;;;7.50;99.90;;;;;;5114334;28;20051;-73
2022/05/09 05:43:57;;;;;;;18.00;5.38;;;7.60;99.90;;;;;;5114229;28;20051;-76
2022/05/09 05:46:23;;;;;;;17.48;5.47;;;7.70;99.90;;;;;;5114420;28;20460;-75
2022/05/09 05:48:48;;;;;;;15.10;4.90;;;7.80;99.90;;;;;;5114092;28;20043;-76
2022/05/09 05:51:14;;;;;;;16.08;4.43;;;7.90;99.90;;;;;;5114738;28;20046;-78
2022/05/09 05:53:40;;;;;;;17.27;4.47;;;8.20;99.90;;;;;;5114198;28;20051;-76
2022/05/09 05:56:06;;;;;;;15.13;4.55;;;8.30;99.90;;;;;;5114330;28;20044;-75
2022/05/09 05:58:33;;;;;;;21.05;6.15;;;8.50;99.90;;;;;;5113997;28;20062;-75
2022/05/09 06:00:59;;;;;;;14.93;4.80;;;8.70;99.90;;;;;;5114388;28;20051;-76
2022/05/09 06:03:24;;;;;;;20.92;5.38;;;8.90;99.90;;;;;;5114297;28;20051;-76
2022/05/09 06:05:50;;;;;;;17.23;6.13;;;9.10;99.90;;;;;;5114175;28;20081;-76
2022/05/09 06:08:16;;;;;;;18.83;5.18;;;9.30;99.90;;;;;;5114110;28;20055;-76
2022/05/09 06:10:42;;;;;;;17.92;4.75;;;9.50;99.90;;;;;;5114227;28;20466;-76
2022/05/09 06:13:08;;;;;;;13.20;5.47;;;9.60;99.90;;;;;;5112716;28;20083;-75
2022/05/09 06:15:36;;;;;;;17.98;5.43;;;9.80;99.90;;;;;;5113201;28;20137;-74
2022/05/09 06:18:08;;;;;;;11.52;5.25;;;9.80;99.90;;;;;;5113713;28;20079;-72
2022/05/09 06:20:39;;;;;;;13.25;5.38;;;10.00;99.90;;;;;;5113560;28;20088;-73
2022/05/09 06:23:06;;;;;;;17.58;5.20;;;10.10;99.90;;;;;;5113636;28;20039;-73
2022/05/09 06:25:36;;;;;;;11.82;5.13;;;10.30;99.90;;;;;;5113118;28;20475;-72
2022/05/09 06:28:05;;;;;;;18.90;5.10;;;10.50;99.90;;;;;;5114077;28;20441;-73
2022/05/09 06:30:30;;;;;;;11.73;4.90;;;10.60;99.90;;;;;;5113541;28;20039;-74
2022/05/09 06:32:57;;;;;;;17.13;5.22;;;10.80;99.90;;;;;;5113412;28;20051;-74
2022/05/09 06:35:24;;;;;;;10.95;4.70;;;10.90;99.90;;;;;;5113673;28;20040;-73
2022/05/09 06:37:59;;;;;;;18.45;5.45;;;11.10;99.90;;;;;;5113697;28;20048;-73
2022/05/09 06:40:25;;;;;;;15.82;4.70;;;11.30;99.90;;;;;;5114032;28;20050;-76
2022/05/09 06:42:52;;;;;;;17.23;4.73;;;11.40;99.90;;;;;;5117880;28;20051;-75
2022/05/09 06:45:18;;;;;;;13.63;5.15;;;11.50;99.90;;;;;;5117373;27;20051;-77
2022/05/09 06:47:49;;;;;;;16.35;4.35;;;11.70;99.90;;;;;;5117216;28;20040;-73
2022/05/09 06:50:16;;;;;;;19.25;4.72;;;11.90;99.90;;;;;;5117249;28;20486;-73
2022/05/09 06:52:42;;;;;;;;;;;11.90;99.90;;;;;;5117586;28;20058;-74
2022/05/09 06:55:08;;;;;;;21.25;5.22;;;12.00;99.90;;;;;;5117208;28;19924;-74
2022/05/09 06:57:37;;;;;;;16.20;4.88;;;12.10;99.90;;;;;;5117204;28;20059;-74
2022/05/09 07:00:06;;;;;;;13.82;4.55;;;12.20;99.90;;;;;;5117221;28;20047;-73
2022/05/09 07:02:31;;;;;;;16.10;5.10;;;12.30;99.90;;;;;;5116940;28;20051;-74
2022/05/09 07:04:57;;;;;;;13.93;4.60;;;12.40;99.90;;;;;;5117030;28;20472;-72
2022/05/09 07:07:22;;;;;;;14.10;4.65;;;12.60;99.90;;;;;;5116918;28;20043;-72
2022/05/09 07:09:48;;;;;;;18.60;4.85;;;12.70;99.90;;;;;;5116872;28;20054;-72
2022/05/09 07:12:13;;;;;;;15.52;5.15;;;12.80;99.90;;;;;;5116846;28;20049;-71
2022/05/09 07:14:39;;;;;;;13.00;4.53;;;12.90;99.90;;;;;;5116683;28;20040;-73
2022/05/09 07:17:05;;;;;;;12.95;4.80;;;13.00;99.90;;;;;;5116452;28;20079;-73
2022/05/09 07:19:31;;;;;;;18.08;4.68;;;13.10;99.90;;;;;;5116657;28;20040;-75
2022/05/09 07:21:57;;;;;;;21.10;5.00;;;13.30;99.90;;;;;;5116393;28;20055;-72
2022/05/09 07:24:23;;;;;;;15.52;4.65;;;13.50;99.90;;;;;;5116691;28;20464;-71
2022/05/09 07:26:48;;;;;;;15.23;5.55;;;13.60;99.90;;;;;;5116551;28;20517;-72
2022/05/09 07:29:14;;;;;;;13.63;4.45;;;13.70;99.90;;;;;;5116607;28;20051;-71
2022/05/09 07:31:39;;;;;;;18.60;5.30;;;13.90;99.90;;;;;;5116412;28;20075;-71
2022/05/09 07:34:05;;;;;;;13.45;4.43;;;14.00;99.90;;;;;;5116518;28;20043;-72
2022/05/09 07:36:31;;;;;;;13.40;4.40;;;14.10;99.90;;;;;;5116491;28;20074;-72
2022/05/09 07:38:56;;;;;;;12.38;4.38;;;14.20;99.90;;;;;;5116258;28;20107;-73
2022/05/09 07:41:22;;;;;;;17.83;5.18;;;14.20;99.90;;;;;;5116327;28;20126;-73
2022/05/09 07:43:47;;;;;;;20.42;4.88;;;14.40;99.90;;;;;;5116334;28;20376;-73
2022/05/09 07:46:13;;;;;;;10.95;4.20;;;14.60;99.90;;;;;;5116071;28;20036;-72
2022/05/09 07:48:40;;;;;;;9.77;4.40;;;14.70;99.90;;;;;;5116360;28;20517;-73
2022/05/09 07:51:05;;;;;;;13.98;4.75;;;14.80;99.90;;;;;;5116179;28;20044;-72
2022/05/09 07:53:33;;;;;;;16.50;5.10;;;15.00;99.90;;;;;;5114473;28;20494;-73
2022/05/09 07:56:00;;;;;;;16.25;4.22;;;15.10;99.90;;;;;;5115939;28;20516;-74
2022/05/09 07:58:26;;;;;;;14.95;4.45;;;15.20;99.90;;;;;;5116174;28;20043;-73
2022/05/09 08:00:53;;;;;;;11.20;4.20;;;15.30;99.90;;;;;;5115675;28;20434;-73
2022/05/09 08:03:22;;;;;;;22.27;4.53;;;15.40;99.90;;;;;;5115754;28;20055;-74
2022/05/09 08:05:49;;;;;;;12.25;5.60;;;15.50;99.90;;;;;;5115771;27;20049;-76
2022/05/09 08:08:14;;;;;;;16.23;4.50;;;15.70;99.90;;;;;;5115847;28;20079;-74
2022/05/09 08:10:42;;;;;;;16.50;4.90;;;15.90;99.90;;;;;;5115892;28;20086;-76
2022/05/09 08:13:08;;;;;;;9.88;3.80;;;16.00;99.90;;;;;;5115796;28;20051;-76
2022/05/09 08:15:35;;;;;;;15.43;4.07;;;16.20;99.90;;;;;;5115176;28;20403;-76
2022/05/09 08:18:02;;;;;;;12.15;4.22;;;16.30;99.90;;;;;;5111075;28;20047;-75
2022/05/09 08:20:30;;;;;;;13.18;4.95;;;16.50;99.90;;;;;;5115233;28;20043;-75
2022/05/09 08:23:06;;;;;;;12.25;3.67;;;16.70;99.90;;;;;;5095158;28;20059;-75
2022/05/09 08:25:36;;;;;;;14.88;4.20;;;16.80;99.90;;;;;;5097670;28;20542;-76
2022/05/09 08:28:02;;;;;;;9.80;3.83;;;16.80;99.90;;;;;;5107362;28;20483;-78
2022/05/09 08:30:34;;;;;;;12.05;4.15;;;16.90;99.90;;;;;;5094744;28;20051;-78
2022/05/09 08:33:06;;;;;;;13.98;3.67;;;17.00;99.90;;;;;;5094562;28;20475;-76
2022/05/09 08:35:32;;;;;;;9.68;3.60;;;17.20;99.90;;;;;;5094839;28;20047;-77
2022/05/09 08:37:58;;;;;;;12.93;3.90;;;17.30;99.90;;;;;;5095361;28;20408;-75
2022/05/09 08:40:34;;;;;;;13.60;3.85;;;17.30;99.90;;;;;;5094817;28;20047;-77
2022/05/09 08:43:09;;;;;;;9.95;3.47;;;17.40;99.00;;;;;;5094879;28;20048;-76
2022/05/09 08:45:39;;;;;;;12.75;3.45;;;17.50;99.90;;;;;;5096444;28;20079;-78
2022/05/09 08:48:23;;;;;;;10.48;3.78;;;17.60;97.80;;;;;;5115169;28;20077;-75
2022/05/09 08:51:11;;;;;;;10.13;3.38;;;17.80;97.50;;;;;;5114916;28;20132;-77
2022/05/09 08:53:41;;;;;;;12.07;3.40;;;17.90;97.00;;;;;;5114586;28;20055;-77
2022/05/09 08:56:13;;;;;;;15.95;3.45;;;18.00;96.20;;;;;;5114305;28;20406;-79
2022/05/09 08:58:42;;;;;;;9.18;3.13;;;18.00;95.50;;;;;;5114159;28;20050;-77
2022/05/09 09:01:24;;;;;;;13.93;3.45;;;18.20;94.70;;;;;;5114188;28;20048;-75
2022/05/09 09:03:58;;;;;;;14.77;3.42;;;18.40;95.10;;;;;;5112662;28;20044;-76
2022/05/09 09:06:57;;;;;;;16.90;4.00;;;18.60;95.30;;;;;;5114116;28;20050;-75
2022/05/09 09:09:38;;;;;;;14.68;3.05;;;18.60;93.20;;;;;;5114868;28;20047;-77
2022/05/09 09:12:31;;;;;;;7.38;2.50;;;18.60;93.90;;;;;;5114811;28;20054;-75
2022/05/09 09:15:17;;;;;;;10.88;2.97;;;18.70;94.90;;;;;;5114265;28;20122;-76
2022/05/09 09:18:04;;;;;;;9.13;2.90;;;18.90;94.30;;;;;;5114413;28;20130;-76
2022/05/09 09:20:51;;;;;;;8.70;2.50;;;19.00;92.00;;;;;;5114527;28;20045;-77
2022/05/09 09:23:39;;;;;;;11.48;2.75;;;19.10;92.30;;;;;;5114461;28;20407;-77
2022/05/09 09:26:35;;;;;;;7.63;2.53;;;19.30;92.00;;;;;;5114363;28;20122;-76
2022/05/09 09:29:08;;;;;;;13.88;3.03;;;19.40;92.30;;;;;;5114197;28;20126;-77
2022/05/09 09:31:37;;;;;;;8.15;2.38;;;19.50;91.20;;;;;;5113904;28;20075;-76
2022/05/09 09:34:16;;;;;;;9.18;2.80;;;19.60;92.20;;;;;;5114189;28;20048;-77
2022/05/09 09:36:50;;;;;;;9.07;2.95;;;19.70;91.40;;;;;;5114242;28;20054;-77
2022/05/09 09:39:19;;;;;;;11.50;2.55;;;19.70;88.90;;;;;;5114243;28;20054;-74
2022/05/09 09:41:46;;;;;;;8.77;2.20;;;19.80;90.20;;;;;;5113978;28;20054;-74
2022/05/09 09:44:22;;;;;;;8.05;2.28;;;19.90;90.60;;;;;;5114060;28;20131;-76
2022/05/09 09:47:05;;;;;;;9.65;2.10;;;20.00;90.00;;;;;;5114128;28;20044;-74
2022/05/09 09:49:33;;;;;;;9.13;2.67;;;20.10;87.10;;;;;;5113941;28;20054;-76
2022/05/09 09:51:59;;;;;;;6.43;1.90;;;20.20;88.20;;;;;;5113861;28;20043;-75
2022/05/09 09:54:27;;;;;;;7.83;2.40;;;20.30;88.90;;;;;;5113926;28;20042;-74
2022/05/09 09:56:53;;;;;;;11.20;2.92;;;20.40;89.30;;;;;;5113353;28;20492;-76
2022/05/09 09:59:31;;;;;;;7.25;2.25;;;20.30;87.00;;;;;;5114174;28;20047;-73
2022/05/09 10:02:17;;;;;;;7.07;2.30;;;20.30;89.50;;;;;;5113732;28;20407;-74
2022/05/09 10:04:44;;;;;;;7.18;2.15;;;20.30;85.90;;;;;;5113780;28;20044;-75
2022/05/09 10:07:16;;;;;;;8.52;2.60;;;20.40;87.40;;;;;;5113761;28;20048;-74
2022/05/09 10:09:45;;;;;;;8.07;2.10;;;20.40;87.00;;;;;;5113867;28;20050;-74
2022/05/09 10:12:24;;;;;;;9.65;2.47;;;20.70;87.00;;;;;;5113716;28;20079;-74
2022/05/09 10:14:52;;;;;;;9.77;2.33;;;20.80;86.60;;;;;;5113838;28;20040;-75
2022/05/09 10:17:25;;;;;;;11.75;2.38;;;20.90;85.10;;;;;;5117881;28;20100;-75
2022/05/09 10:19:53;;;;;;;6.60;2.13;;;20.90;84.10;;;;;;5117803;28;20040;-73
2022/05/09 10:25:17;;;;;;;7.93;2.35;;;21.00;86.90;;;;;;5117528;28;20048;-77
2022/05/09 10:27:44;;;;;;;6.85;2.42;;;21.00;85.00;;;;;;5117887;27;20049;-76
2022/05/09 10:30:24;;;;;;;8.95;2.20;;;21.10;85.30;;;;;;5116676;28;20048;-78
2022/05/09 10:32:58;;;;;;;9.13;1.70;;;21.30;83.60;;;;;;5117624;28;20071;-75
2022/05/09 10:35:45;;;;;;;9.48;2.70;;;21.50;85.40;;;;;;5117829;28;20039;-75
2022/05/09 10:38:19;;;;;;;9.75;2.00;;;21.60;84.90;;;;;;5117710;27;20047;-76
2022/05/09 10:40:54;;;;;;;6.03;2.45;;;21.80;84.40;;;;;;5116993;28;20040;-75
2022/05/09 10:43:28;;;;;;;9.65;2.50;;;21.80;84.60;;;;;;5117527;28;20058;-76
2022/05/09 10:45:54;;;;;;;5.68;2.08;;;21.90;83.80;;;;;;5117583;28;20054;-79
2022/05/09 10:48:35;;;;;;;9.98;2.53;;;22.10;83.50;;;;;;5117360;28;20039;-77
2022/05/09 10:51:14;;;;;;;6.35;2.13;;;22.10;83.20;;;;;;5117375;28;20130;-77
2022/05/09 10:53:45;;;;;;;7.97;2.00;;;22.20;81.50;;;;;;5115948;28;20054;-78
2022/05/09 10:56:20;;;;;;;6.93;1.90;;;22.20;82.60;;;;;;5117176;28;20524;-77
2022/05/09 10:58:55;;;;;;;12.75;2.42;;;22.30;83.70;;;;;;5117465;28;20092;-76
2022/05/09 11:01:44;;;;;;;4.88;2.03;;;22.20;81.80;;;;;;5117086;28;20521;-75
2022/05/09 11:04:12;;;;;;;8.45;2.63;;;22.20;80.30;;;;;;5117128;28;20043;-79
2022/05/09 11:07:02;;;;;;;9.82;2.15;;;22.10;80.30;;;;;;5115813;28;20083;-78
2022/05/09 11:10:03;;;;;;;6.72;2.17;;;22.10;81.80;;;;;;5104913;28;20376;-75
2022/05/09 11:12:58;;;;;;;7.72;2.00;;;22.30;82.60;;;;;;5116940;28;20051;-78
2022/05/09 11:15:41;;;;;;;7.25;2.00;;;22.40;83.10;;;;;;5116713;28;20048;-75
2022/05/09 11:18:42;;;;;;;6.03;2.20;;;22.60;82.70;;;;;;5116626;28;20169;-72
2022/05/09 11:21:36;;;;;;;5.95;2.05;;;22.70;82.40;;;;;;5116781;28;20390;-72
2022/05/09 11:24:25;;;;;;;6.25;2.03;;;22.70;81.80;;;;;;5116559;28;20134;-72
2022/05/09 11:27:07;;;;;;;9.10;2.28;;;22.80;82.20;;;;;;5116543;28;20089;-74
2022/05/09 11:29:54;;;;;;;5.50;1.88;;;22.80;81.20;;;;;;5116456;28;20050;-74
2022/05/09 11:32:42;;;;;;;6.78;2.50;;;23.00;82.90;;;;;;5114123;28;20044;-72
2022/05/09 11:35:13;;;;;;;;;;;23.00;81.50;;;;;;5115990;28;20044;-72
2022/05/09 11:38:10;;;;;;;9.63;2.95;;;23.00;79.80;;;;;;5116075;27;19971;-74
2022/05/09 11:40:48;;;;;;;7.68;1.85;;;23.00;81.50;;;;;;5115253;28;20091;-73
2022/05/09 11:43:58;;;;;;;7.57;2.17;;;23.10;81.90;;;;;;5115968;28;20043;-74
2022/05/09 11:46:41;;;;;;;5.50;2.40;;;23.10;81.30;;;;;;5116254;28;20446;-73
2022/05/09 11:49:32;;;;;;;9.20;2.22;;;23.30;81.20;;;;;;5116455;28;20047;-73
2022/05/09 11:52:01;;;;;;;7.63;2.20;;;23.10;80.60;;;;;;5115900;27;20083;-72
2022/05/09 11:54:37;;;;;;;6.35;2.20;;;23.20;81.80;;;;;;5115861;28;20043;-71
2022/05/09 11:57:11;;;;;;;6.57;2.20;;;23.30;82.10;;;;;;5115696;28;20548;-73
2022/05/09 11:59:47;;;;;;;4.55;2.10;;;23.40;80.70;;;;;;5115767;28;20079;-74
2022/05/09 12:02:13;;;;;;;4.97;2.10;;;23.40;79.60;;;;;;5115351;28;20054;-74
2022/05/09 12:04:45;;;;;;;9.07;2.07;;;23.50;80.90;;;;;;5115773;28;20119;-74
2022/05/09 12:07:26;;;;;;;9.60;2.72;;;23.60;81.50;;;;;;5115459;28;20043;-73
2022/05/09 12:09:57;;;;;;;8.35;2.40;;;23.70;80.40;;;;;;5115771;28;20044;-73
2022/05/09 12:12:41;;;;;;;13.30;2.75;;;23.80;80.50;;;;;;5115589;28;20047;-73
2022/05/09 12:15:14;;;;;;;7.15;2.22;;;23.70;78.70;;;;;;5115196;28;20392;-73
2022/05/09 12:17:45;;;;;;;10.18;2.13;;;23.70;80.40;;;;;;5115509;28;20471;-78
2022/05/09 12:20:36;;;;;;;35.92;6.38;;;23.80;80.50;;;;;;5115677;28;20479;-79
2022/05/09 12:23:09;;;;;;;6.78;2.63;;;23.90;81.10;;;;;;5114404;28;20074;-79
2022/05/09 12:25:36;;;;;;;9.80;2.20;;;24.00;80.00;;;;;;5113952;28;20039;-76
2022/05/09 12:28:20;;;;;;;;;;;24.00;81.20;;;;;;5115574;28;20433;-79
2022/05/09 12:30:52;;;;;;;5.93;2.17;;;23.90;77.20;;;;;;5115318;28;19966;-77
2022/05/09 12:33:48;;;;;;;6.30;2.05;;;23.70;78.70;;;;;;5115357;28;20047;-78
2022/05/09 12:36:16;;;;;;;8.15;2.20;;;23.90;79.60;;;;;;5114923;28;20079;-76
2022/05/09 12:38:49;;;;;;;6.82;2.38;;;24.00;79.20;;;;;;5114488;28;20044;-76
2022/05/09 12:41:17;;;;;;;4.57;2.17;;;24.10;79.50;;;;;;5113968;28;20052;-78
2022/05/09 12:44:05;;;;;;;6.63;2.67;;;24.00;78.30;;;;;;5113970;28;20054;-77
2022/05/09 12:46:36;;;;;;;;;;;24.20;79.80;;;;;;5100799;28;20052;-78
2022/05/09 12:49:05;;;;;;;5.90;1.90;;;24.30;78.50;;;;;;5114890;27;19966;-77
2022/05/09 12:51:39;;;;;;;6.82;2.00;;;24.40;79.50;;;;;;5113285;28;20040;-77
2022/05/09 12:54:11;;;;;;;6.97;2.33;;;24.60;80.20;;;;;;5114291;28;20039;-75
2022/05/09 12:56:39;;;;;;;10.80;2.20;;;24.70;76.60;;;;;;5114599;28;20087;-75
2022/05/09 12:59:10;;;;;;;7.32;2.03;;;24.70;76.10;;;;;;5114594;28;20058;-76
2022/05/09 13:01:42;;;;;;;5.93;2.05;;;24.50;76.40;;;;;;5114747;28;20534;-75
2022/05/09 13:04:23;;;;;;;7.25;1.92;;;24.40;76.00;;;;;;5114661;28;20127;-74
2022/05/09 13:06:53;;;;;;;8.95;2.35;;;24.40;76.30;;;;;;5114478;28;20160;-73
2022/05/09 13:09:22;;;;;;;6.32;2.33;;;24.50;78.20;;;;;;5114500;28;20090;-75
2022/05/09 13:11:52;;;;;;;7.85;1.92;;;24.60;77.30;;;;;;5114457;28;20066;-78